sensor_id;sensor_type;location;lat;lon;timestamp;P1;durP1;ratioP1;P2;durP2;ratioP2
8540;SDS011;4308;51.294;6.590;2024-03-23T00:53:46;29.40;;;7.20;;
8540;SDS011;4308;51.294;6.590;2024-03-23T00:56:12;17.43;;;5.10;;
8540;SDS011;4308;51.294;6.590;2024-03-23T00:58:39;20.93;;;6.27;;
8540;SDS011;4308;51.294;6.590;2024-03-23T01:01:05;14.83;;;4.80;;
8540;SDS011;4308;51.294;6.590;2024-03-23T01:03:31;21.37;;;4.47;;
8540;SDS011;4308;51.294;6.590;2024-03-23T01:06:01;11.83;;;4.10;;
8540;SDS011;4308;51.294;6.590;2024-03-23T01:08:28;11.73;;;2.83;;
8540;SDS011;4308;51.294;6.590;2024-03-23T01:10:58;15.23;;;4.43;;
8540;SDS011;4308;51.294;6.590;2024-03-23T01:13:27;13.73;;;4.57;;
8540;SDS011;4308;51.294;6.590;2024-03-23T01:15:54;12.13;;;3.73;;
8540;SDS011;4308;51.294;6.590;2024-03-23T01:18:22;17.03;;;4.33;;
8540;SDS011;4308;51.294;6.590;2024-03-23T01:20:49;13.03;;;3.50;;
8540;SDS011;4308;51.294;6.590;2024-03-23T01:23:15;21.00;;;4.43;;
8540;SDS011;4308;51.294;6.590;2024-03-23T01:25:42;17.33;;;4.40;;
8540;SDS011;4308;51.294;6.590;2024-03-23T01:28:08;13.73;;;3.77;;
8540;SDS011;4308;51.294;6.590;2024-03-23T01:30:35;11.30;;;3.47;;
8540;SDS011;4308;51.294;6.590;2024-03-23T01:33:02;14.33;;;4.13;;
8540;SDS011;4308;51.294;6.590;2024-03-23T01:35:28;19.13;;;4.13;;
8540;SDS011;4308;51.294;6.590;2024-03-23T01:37:55;9.07;;;3.37;;
8540;SDS011;4308;51.294;6.590;2024-03-23T01:40:21;14.00;;;3.77;;
8540;SDS011;4308;51.294;6.590;2024-03-23T01:42:57;12.27;;;4.17;;
8540;SDS011;4308;51.294;6.590;2024-03-23T01:45:24;14.57;;;3.33;;
8540;SDS011;4308;51.294;6.590;2024-03-23T01:47:53;15.70;;;3.57;;
8540;SDS011;4308;51.294;6.590;2024-03-23T01:50:20;14.87;;;3.87;;
8540;SDS011;4308;51.294;6.590;2024-03-23T01:52:47;12.03;;;3.27;;
8540;SDS011;4308;51.294;6.590;2024-03-23T01:55:14;18.47;;;4.53;;
8540;SDS011;4308;51.294;6.590;2024-03-23T01:57:41;15.73;;;4.93;;
8540;SDS011;4308;51.294;6.590;2024-03-23T02:00:07;11.40;;;4.20;;
8540;SDS011;4308;51.294;6.590;2024-03-23T02:02:34;14.67;;;4.10;;
8540;SDS011;4308;51.294;6.590;2024-03-23T02:05:00;11.17;;;4.07;;
8540;SDS011;4308;51.294;6.590;2024-03-23T02:07:27;13.33;;;3.77;;
8540;SDS011;4308;51.294;6.590;2024-03-23T02:09:53;15.17;;;3.23;;
8540;SDS011;4308;51.294;6.590;2024-03-23T02:12:20;15.07;;;3.90;;
8540;SDS011;4308;51.294;6.590;2024-03-23T02:14:47;14.23;;;3.67;;
8540;SDS011;4308;51.294;6.590;2024-03-23T02:17:13;16.23;;;4.70;;
8540;SDS011;4308;51.294;6.590;2024-03-23T02:19:39;9.47;;;4.17;;
8540;SDS011;4308;51.294;6.590;2024-03-23T02:22:06;14.67;;;4.23;;
8540;SDS011;4308;51.294;6.590;2024-03-23T02:24:32;10.77;;;3.67;;
8540;SDS011;4308;51.294;6.590;2024-03-23T02:27:01;15.20;;;4.10;;
8540;SDS011;4308;51.294;6.590;2024-03-23T02:29:28;10.83;;;3.80;;
8540;SDS011;4308;51.294;6.590;2024-03-23T02:31:54;10.33;;;3.10;;
8540;SDS011;4308;51.294;6.590;2024-03-23T02:34:21;15.33;;;3.67;;
8540;SDS011;4308;51.294;6.590;2024-03-23T02:36:47;9.40;;;3.13;;
8540;SDS011;4308;51.294;6.590;2024-03-23T02:39:13;15.63;;;4.10;;
8540;SDS011;4308;51.294;6.590;2024-03-23T02:41:39;15.77;;;4.07;;
8540;SDS011;4308;51.294;6.590;2024-03-23T02:44:06;15.03;;;3.50;;
8540;SDS011;4308;51.294;6.590;2024-03-23T02:46:32;8.83;;;3.60;;
8540;SDS011;4308;51.294;6.590;2024-03-23T02:48:58;12.33;;;3.30;;
8540;SDS011;4308;51.294;6.590;2024-03-23T02:51:25;13.60;;;3.50;;
8540;SDS011;4308;51.294;6.590;2024-03-23T02:53:51;10.93;;;3.33;;
8540;SDS011;4308;51.294;6.590;2024-03-23T02:56:17;12.93;;;4.10;;
8540;SDS011;4308;51.294;6.590;2024-03-23T02:58:44;15.00;;;3.53;;
8540;SDS011;4308;51.294;6.590;2024-03-23T03:01:10;11.27;;;3.37;;
8540;SDS011;4308;51.294;6.590;2024-03-23T03:03:36;14.03;;;4.37;;
8540;SDS011;4308;51.294;6.590;2024-03-23T03:06:03;12.20;;;3.40;;
8540;SDS011;4308;51.294;6.590;2024-03-23T03:08:29;12.80;;;3.57;;
8540;SDS011;4308;51.294;6.590;2024-03-23T03:10:56;12.50;;;3.80;;
8540;SDS011;4308;51.294;6.590;2024-03-23T03:13:22;11.30;;;3.90;;
8540;SDS011;4308;51.294;6.590;2024-03-23T03:15:48;11.90;;;3.90;;
8540;SDS011;4308;51.294;6.590;2024-03-23T03:18:15;14.03;;;4.43;;
8540;SDS011;4308;51.294;6.590;2024-03-23T03:20:41;15.30;;;4.33;;
8540;SDS011;4308;51.294;6.590;2024-03-23T03:23:07;13.00;;;4.17;;
8540;SDS011;4308;51.294;6.590;2024-03-23T03:25:34;12.40;;;3.60;;
8540;SDS011;4308;51.294;6.590;2024-03-23T03:28:00;16.93;;;4.63;;
8540;SDS011;4308;51.294;6.590;2024-03-23T03:30:26;12.17;;;4.10;;
8540;SDS011;4308;51.294;6.590;2024-03-23T03:32:53;13.33;;;3.60;;
8540;SDS011;4308;51.294;6.590;2024-03-23T03:35:20;11.87;;;4.00;;
8540;SDS011;4308;51.294;6.590;2024-03-23T03:37:46;12.77;;;3.87;;
8540;SDS011;4308;51.294;6.590;2024-03-23T03:40:12;12.70;;;3.70;;
8540;SDS011;4308;51.294;6.590;2024-03-23T03:42:41;16.90;;;4.43;;
8540;SDS011;4308;51.294;6.590;2024-03-23T03:45:07;12.77;;;4.20;;
8540;SDS011;4308;51.294;6.590;2024-03-23T03:47:33;14.97;;;3.80;;
8540;SDS011;4308;51.294;6.590;2024-03-23T03:49:59;14.00;;;4.43;;
8540;SDS011;4308;51.294;6.590;2024-03-23T03:52:26;17.53;;;3.50;;
8540;SDS011;4308;51.294;6.590;2024-03-23T03:54:55;16.97;;;4.00;;
8540;SDS011;4308;51.294;6.590;2024-03-23T03:57:27;12.30;;;4.00;;
8540;SDS011;4308;51.294;6.590;2024-03-23T03:59:53;15.90;;;3.87;;
8540;SDS011;4308;51.294;6.590;2024-03-23T04:02:20;15.00;;;4.07;;
8540;SDS011;4308;51.294;6.590;2024-03-23T04:04:46;13.10;;;4.30;;
8540;SDS011;4308;51.294;6.590;2024-03-23T04:07:12;15.70;;;4.70;;
8540;SDS011;4308;51.294;6.590;2024-03-23T04:09:39;13.20;;;4.40;;
8540;SDS011;4308;51.294;6.590;2024-03-23T04:12:05;12.83;;;4.20;;
8540;SDS011;4308;51.294;6.590;2024-03-23T04:14:32;14.33;;;4.47;;
8540;SDS011;4308;51.294;6.590;2024-03-23T04:16:59;14.10;;;6.00;;
8540;SDS011;4308;51.294;6.590;2024-03-23T04:19:25;16.43;;;5.83;;
8540;SDS011;4308;51.294;6.590;2024-03-23T04:21:51;15.37;;;4.97;;
8540;SDS011;4308;51.294;6.590;2024-03-23T04:24:17;16.47;;;4.90;;
8540;SDS011;4308;51.294;6.590;2024-03-23T04:26:44;14.67;;;5.10;;
8540;SDS011;4308;51.294;6.590;2024-03-23T04:29:10;14.23;;;5.20;;
8540;SDS011;4308;51.294;6.590;2024-03-23T04:31:36;18.53;;;5.20;;
8540;SDS011;4308;51.294;6.590;2024-03-23T04:34:03;15.93;;;5.63;;
8540;SDS011;4308;51.294;6.590;2024-03-23T04:36:29;16.73;;;6.33;;
8540;SDS011;4308;51.294;6.590;2024-03-23T04:38:56;16.57;;;6.03;;
8540;SDS011;4308;51.294;6.590;2024-03-23T04:41:23;24.33;;;6.13;;
8540;SDS011;4308;51.294;6.590;2024-03-23T04:43:50;17.50;;;5.90;;
8540;SDS011;4308;51.294;6.590;2024-03-23T04:46:16;15.87;;;6.07;;
8540;SDS011;4308;51.294;6.590;2024-03-23T04:48:42;20.63;;;7.53;;
8540;SDS011;4308;51.294;6.590;2024-03-23T04:51:09;22.50;;;6.73;;
8540;SDS011;4308;51.294;6.590;2024-03-23T04:53:36;23.37;;;7.67;;
8540;SDS011;4308;51.294;6.590;2024-03-23T04:56:02;17.37;;;6.77;;
8540;SDS011;4308;51.294;6.590;2024-03-23T04:58:28;20.37;;;6.83;;
8540;SDS011;4308;51.294;6.590;2024-03-23T05:00:55;14.60;;;6.20;;
8540;SDS011;4308;51.294;6.590;2024-03-23T05:03:22;20.33;;;6.67;;
8540;SDS011;4308;51.294;6.590;2024-03-23T05:05:49;17.93;;;6.20;;
8540;SDS011;4308;51.294;6.590;2024-03-23T05:08:16;17.23;;;6.63;;
8540;SDS011;4308;51.294;6.590;2024-03-23T05:10:42;19.03;;;7.43;;
8540;SDS011;4308;51.294;6.590;2024-03-23T05:13:09;18.63;;;7.73;;
8540;SDS011;4308;51.294;6.590;2024-03-23T05:15:36;16.00;;;7.60;;
8540;SDS011;4308;51.294;6.590;2024-03-23T05:18:02;16.80;;;7.07;;
8540;SDS011;4308;51.294;6.590;2024-03-23T05:20:29;15.60;;;6.63;;
8540;SDS011;4308;51.294;6.590;2024-03-23T05:22:56;19.37;;;7.10;;
8540;SDS011;4308;51.294;6.590;2024-03-23T05:25:22;22.40;;;7.60;;
8540;SDS011;4308;51.294;6.590;2024-03-23T05:27:48;18.23;;;7.40;;
8540;SDS011;4308;51.294;6.590;2024-03-23T05:30:15;19.23;;;7.33;;
8540;SDS011;4308;51.294;6.590;2024-03-23T05:32:42;19.90;;;8.00;;
8540;SDS011;4308;51.294;6.590;2024-03-23T05:35:09;17.77;;;7.57;;
8540;SDS011;4308;51.294;6.590;2024-03-23T05:37:35;22.77;;;7.50;;
8540;SDS011;4308;51.294;6.590;2024-03-23T05:40:03;17.93;;;7.00;;
8540;SDS011;4308;51.294;6.590;2024-03-23T05:42:29;19.17;;;7.87;;
8540;SDS011;4308;51.294;6.590;2024-03-23T05:44:56;16.93;;;6.83;;
8540;SDS011;4308;51.294;6.590;2024-03-23T05:47:22;19.17;;;7.30;;
8540;SDS011;4308;51.294;6.590;2024-03-23T05:49:49;19.93;;;7.43;;
8540;SDS011;4308;51.294;6.590;2024-03-23T05:52:16;16.93;;;8.17;;
8540;SDS011;4308;51.294;6.590;2024-03-23T05:54:42;20.53;;;8.07;;
8540;SDS011;4308;51.294;6.590;2024-03-23T05:57:09;20.93;;;8.73;;
8540;SDS011;4308;51.294;6.590;2024-03-23T05:59:35;18.27;;;9.00;;
8540;SDS011;4308;51.294;6.590;2024-03-23T06:02:01;25.30;;;9.00;;
8540;SDS011;4308;51.294;6.590;2024-03-23T06:04:28;31.17;;;10.07;;
8540;SDS011;4308;51.294;6.590;2024-03-23T06:06:54;27.90;;;9.00;;
8540;SDS011;4308;51.294;6.590;2024-03-23T06:09:20;27.53;;;9.53;;
8540;SDS011;4308;51.294;6.590;2024-03-23T06:11:48;20.80;;;9.20;;
8540;SDS011;4308;51.294;6.590;2024-03-23T06:14:14;30.83;;;9.60;;
8540;SDS011;4308;51.294;6.590;2024-03-23T06:16:40;16.37;;;8.47;;
8540;SDS011;4308;51.294;6.590;2024-03-23T06:19:07;18.50;;;8.40;;
8540;SDS011;4308;51.294;6.590;2024-03-23T06:21:33;22.10;;;9.13;;
8540;SDS011;4308;51.294;6.590;2024-03-23T06:23:59;29.30;;;9.13;;
8540;SDS011;4308;51.294;6.590;2024-03-23T06:26:26;18.50;;;8.27;;
8540;SDS011;4308;51.294;6.590;2024-03-23T06:28:52;20.00;;;8.83;;
8540;SDS011;4308;51.294;6.590;2024-03-23T06:31:19;18.93;;;7.50;;
8540;SDS011;4308;51.294;6.590;2024-03-23T06:33:45;21.67;;;7.90;;
8540;SDS011;4308;51.294;6.590;2024-03-23T06:36:11;26.40;;;8.67;;
8540;SDS011;4308;51.294;6.590;2024-03-23T06:38:40;21.00;;;8.70;;
8540;SDS011;4308;51.294;6.590;2024-03-23T06:41:06;25.50;;;8.07;;
8540;SDS011;4308;51.294;6.590;2024-03-23T06:43:33;25.80;;;8.77;;
8540;SDS011;4308;51.294;6.590;2024-03-23T06:45:59;21.63;;;8.87;;
8540;SDS011;4308;51.294;6.590;2024-03-23T06:48:27;24.30;;;9.13;;
8540;SDS011;4308;51.294;6.590;2024-03-23T06:50:57;19.37;;;9.30;;
8540;SDS011;4308;51.294;6.590;2024-03-23T06:53:26;22.10;;;9.70;;
8540;SDS011;4308;51.294;6.590;2024-03-23T06:55:54;25.47;;;10.57;;
8540;SDS011;4308;51.294;6.590;2024-03-23T06:58:21;22.97;;;8.93;;
8540;SDS011;4308;51.294;6.590;2024-03-23T07:00:49;24.67;;;8.70;;
8540;SDS011;4308;51.294;6.590;2024-03-23T07:03:18;19.97;;;8.33;;
8540;SDS011;4308;51.294;6.590;2024-03-23T07:05:45;21.67;;;8.83;;
8540;SDS011;4308;51.294;6.590;2024-03-23T07:08:14;20.90;;;8.43;;
8540;SDS011;4308;51.294;6.590;2024-03-23T07:10:41;22.93;;;9.00;;
8540;SDS011;4308;51.294;6.590;2024-03-23T07:13:10;22.13;;;8.47;;
8540;SDS011;4308;51.294;6.590;2024-03-23T07:15:38;23.70;;;9.00;;
8540;SDS011;4308;51.294;6.590;2024-03-23T07:18:07;20.00;;;8.70;;
8540;SDS011;4308;51.294;6.590;2024-03-23T07:20:35;21.93;;;8.33;;
8540;SDS011;4308;51.294;6.590;2024-03-23T07:23:03;28.23;;;8.27;;
8540;SDS011;4308;51.294;6.590;2024-03-23T07:25:31;24.47;;;8.30;;
8540;SDS011;4308;51.294;6.590;2024-03-23T07:27:57;18.63;;;7.87;;
8540;SDS011;4308;51.294;6.590;2024-03-23T07:30:24;17.67;;;7.50;;
8540;SDS011;4308;51.294;6.590;2024-03-23T07:32:50;17.63;;;7.50;;
8540;SDS011;4308;51.294;6.590;2024-03-23T07:35:17;17.63;;;6.70;;
8540;SDS011;4308;51.294;6.590;2024-03-23T07:37:45;16.27;;;7.57;;
8540;SDS011;4308;51.294;6.590;2024-03-23T07:40:11;15.10;;;6.73;;
8540;SDS011;4308;51.294;6.590;2024-03-23T07:42:37;18.67;;;6.97;;
8540;SDS011;4308;51.294;6.590;2024-03-23T07:45:04;22.60;;;8.30;;
8540;SDS011;4308;51.294;6.590;2024-03-23T07:47:30;17.27;;;7.93;;
8540;SDS011;4308;51.294;6.590;2024-03-23T07:49:57;22.63;;;8.17;;
8540;SDS011;4308;51.294;6.590;2024-03-23T07:52:23;21.80;;;8.17;;
8540;SDS011;4308;51.294;6.590;2024-03-23T07:54:49;21.17;;;7.77;;
8540;SDS011;4308;51.294;6.590;2024-03-23T07:57:16;15.13;;;7.40;;
8540;SDS011;4308;51.294;6.590;2024-03-23T07:59:42;16.97;;;7.13;;
8540;SDS011;4308;51.294;6.590;2024-03-23T08:02:08;22.03;;;7.37;;
8540;SDS011;4308;51.294;6.590;2024-03-23T08:04:35;17.73;;;6.50;;
8540;SDS011;4308;51.294;6.590;2024-03-23T08:07:01;17.93;;;6.07;;
8540;SDS011;4308;51.294;6.590;2024-03-23T08:09:27;15.87;;;6.03;;
8540;SDS011;4308;51.294;6.590;2024-03-23T08:11:54;14.73;;;5.50;;
8540;SDS011;4308;51.294;6.590;2024-03-23T08:14:20;15.80;;;6.40;;
8540;SDS011;4308;51.294;6.590;2024-03-23T08:16:46;14.97;;;5.87;;
8540;SDS011;4308;51.294;6.590;2024-03-23T08:19:13;17.17;;;5.83;;
8540;SDS011;4308;51.294;6.590;2024-03-23T08:21:39;14.90;;;5.30;;
8540;SDS011;4308;51.294;6.590;2024-03-23T08:24:06;10.27;;;4.70;;
8540;SDS011;4308;51.294;6.590;2024-03-23T08:26:32;15.53;;;4.80;;
8540;SDS011;4308;51.294;6.590;2024-03-23T08:28:59;13.37;;;4.73;;
8540;SDS011;4308;51.294;6.590;2024-03-23T08:31:25;15.83;;;5.00;;
8540;SDS011;4308;51.294;6.590;2024-03-23T08:33:51;12.07;;;4.63;;
8540;SDS011;4308;51.294;6.590;2024-03-23T08:36:18;9.10;;;2.67;;
8540;SDS011;4308;51.294;6.590;2024-03-23T08:38:44;5.50;;;2.00;;
8540;SDS011;4308;51.294;6.590;2024-03-23T08:41:11;4.27;;;1.87;;
8540;SDS011;4308;51.294;6.590;2024-03-23T08:43:38;4.63;;;2.00;;
8540;SDS011;4308;51.294;6.590;2024-03-23T08:46:09;6.17;;;2.43;;
8540;SDS011;4308;51.294;6.590;2024-03-23T08:48:40;4.77;;;2.03;;
8540;SDS011;4308;51.294;6.590;2024-03-23T08:51:08;6.57;;;3.20;;
8540;SDS011;4308;51.294;6.590;2024-03-23T08:53:35;10.27;;;3.90;;
8540;SDS011;4308;51.294;6.590;2024-03-23T08:56:02;11.03;;;4.43;;
8540;SDS011;4308;51.294;6.590;2024-03-23T08:58:30;10.87;;;5.17;;
8540;SDS011;4308;51.294;6.590;2024-03-23T09:01:02;11.50;;;4.33;;
8540;SDS011;4308;51.294;6.590;2024-03-23T09:03:29;6.40;;;4.17;;
8540;SDS011;4308;51.294;6.590;2024-03-23T09:05:56;12.27;;;5.23;;
8540;SDS011;4308;51.294;6.590;2024-03-23T09:08:23;13.83;;;5.47;;
8540;SDS011;4308;51.294;6.590;2024-03-23T09:10:49;13.87;;;4.67;;
8540;SDS011;4308;51.294;6.590;2024-03-23T09:13:15;12.27;;;5.13;;
8540;SDS011;4308;51.294;6.590;2024-03-23T09:15:51;12.07;;;3.53;;
8540;SDS011;4308;51.294;6.590;2024-03-23T09:18:17;8.33;;;3.30;;
8540;SDS011;4308;51.294;6.590;2024-03-23T09:20:44;11.03;;;4.13;;
8540;SDS011;4308;51.294;6.590;2024-03-23T09:23:10;7.77;;;3.43;;
8540;SDS011;4308;51.294;6.590;2024-03-23T09:25:39;8.43;;;3.13;;
8540;SDS011;4308;51.294;6.590;2024-03-23T09:28:06;9.77;;;3.13;;
8540;SDS011;4308;51.294;6.590;2024-03-23T09:30:34;14.47;;;3.27;;
8540;SDS011;4308;51.294;6.590;2024-03-23T09:33:02;9.53;;;3.57;;
8540;SDS011;4308;51.294;6.590;2024-03-23T09:35:29;14.47;;;4.00;;
8540;SDS011;4308;51.294;6.590;2024-03-23T09:37:55;9.53;;;3.40;;
8540;SDS011;4308;51.294;6.590;2024-03-23T09:40:21;9.33;;;3.60;;
8540;SDS011;4308;51.294;6.590;2024-03-23T09:42:51;7.87;;;3.53;;
8540;SDS011;4308;51.294;6.590;2024-03-23T09:45:20;13.17;;;4.07;;
8540;SDS011;4308;51.294;6.590;2024-03-23T09:47:48;9.57;;;4.30;;
8540;SDS011;4308;51.294;6.590;2024-03-23T09:50:14;15.37;;;3.90;;
8540;SDS011;4308;51.294;6.590;2024-03-23T09:52:41;13.20;;;3.53;;
8540;SDS011;4308;51.294;6.590;2024-03-23T09:55:10;10.43;;;3.10;;
8540;SDS011;4308;51.294;6.590;2024-03-23T09:57:37;13.80;;;4.20;;
8540;SDS011;4308;51.294;6.590;2024-03-23T10:00:03;11.37;;;2.93;;
8540;SDS011;4308;51.294;6.590;2024-03-23T10:02:36;7.57;;;2.90;;
8540;SDS011;4308;51.294;6.590;2024-03-23T10:05:03;9.03;;;3.90;;
8540;SDS011;4308;51.294;6.590;2024-03-23T10:07:30;7.50;;;3.40;;
8540;SDS011;4308;51.294;6.590;2024-03-23T10:09:56;3.87;;;2.30;;
8540;SDS011;4308;51.294;6.590;2024-03-23T10:12:23;5.53;;;2.33;;
8540;SDS011;4308;51.294;6.590;2024-03-23T10:14:50;6.40;;;2.70;;
8540;SDS011;4308;51.294;6.590;2024-03-23T10:17:17;5.27;;;2.17;;
8540;SDS011;4308;51.294;6.590;2024-03-23T10:19:45;7.23;;;2.40;;
8540;SDS011;4308;51.294;6.590;2024-03-23T10:22:19;4.83;;;2.13;;
8540;SDS011;4308;51.294;6.590;2024-03-23T10:24:49;5.73;;;1.80;;
8540;SDS011;4308;51.294;6.590;2024-03-23T10:27:16;3.60;;;1.60;;
8540;SDS011;4308;51.294;6.590;2024-03-23T10:29:43;7.13;;;1.50;;
8540;SDS011;4308;51.294;6.590;2024-03-23T10:32:14;6.57;;;1.70;;
8540;SDS011;4308;51.294;6.590;2024-03-23T10:34:41;5.00;;;2.20;;
8540;SDS011;4308;51.294;6.590;2024-03-23T10:37:08;4.53;;;1.33;;
8540;SDS011;4308;51.294;6.590;2024-03-23T10:39:36;1.73;;;1.00;;
8540;SDS011;4308;51.294;6.590;2024-03-23T10:42:06;2.93;;;1.10;;
8540;SDS011;4308;51.294;6.590;2024-03-23T10:44:34;2.63;;;1.20;;
8540;SDS011;4308;51.294;6.590;2024-03-23T10:47:01;1.37;;;0.90;;
8540;SDS011;4308;51.294;6.590;2024-03-23T10:49:29;3.43;;;1.30;;
8540;SDS011;4308;51.294;6.590;2024-03-23T10:52:00;3.20;;;0.90;;
8540;SDS011;4308;51.294;6.590;2024-03-23T10:54:30;1.53;;;0.73;;
8540;SDS011;4308;51.294;6.590;2024-03-23T10:59:52;3.67;;;1.00;;
8540;SDS011;4308;51.294;6.590;2024-03-23T11:02:19;3.17;;;1.20;;
8540;SDS011;4308;51.294;6.590;2024-03-23T11:04:47;5.03;;;1.57;;
8540;SDS011;4308;51.294;6.590;2024-03-23T11:09:55;4.57;;;1.67;;
8540;SDS011;4308;51.294;6.590;2024-03-23T11:14:49;4.53;;;2.10;;
8540;SDS011;4308;51.294;6.590;2024-03-23T11:17:20;3.60;;;1.57;;
8540;SDS011;4308;51.294;6.590;2024-03-23T11:20:05;5.10;;;2.00;;
8540;SDS011;4308;51.294;6.590;2024-03-23T11:27:43;4.93;;;2.27;;
8540;SDS011;4308;51.294;6.590;2024-03-23T11:30:11;6.60;;;2.47;;
8540;SDS011;4308;51.294;6.590;2024-03-23T11:32:47;5.90;;;2.30;;
8540;SDS011;4308;51.294;6.590;2024-03-23T11:38:31;8.17;;;2.50;;
8540;SDS011;4308;51.294;6.590;2024-03-23T11:40:50;10.07;;;1.77;;
8540;SDS011;4308;51.294;6.590;2024-03-23T11:43:17;5.67;;;1.90;;
8540;SDS011;4308;51.294;6.590;2024-03-23T11:48:16;6.87;;;2.37;;
8540;SDS011;4308;51.294;6.590;2024-03-23T11:50:44;6.63;;;2.57;;
8540;SDS011;4308;51.294;6.590;2024-03-23T11:53:18;8.13;;;2.30;;
8540;SDS011;4308;51.294;6.590;2024-03-23T11:58:17;6.13;;;1.83;;
8540;SDS011;4308;51.294;6.590;2024-03-23T12:01:09;5.50;;;1.83;;
8540;SDS011;4308;51.294;6.590;2024-03-23T12:03:35;4.63;;;1.90;;
8540;SDS011;4308;51.294;6.590;2024-03-23T12:06:03;4.27;;;2.17;;
8540;SDS011;4308;51.294;6.590;2024-03-23T12:11:06;6.07;;;2.40;;
8540;SDS011;4308;51.294;6.590;2024-03-23T12:13:34;5.27;;;3.00;;
8540;SDS011;4308;51.294;6.590;2024-03-23T12:16:10;6.20;;;2.80;;
8540;SDS011;4308;51.294;6.590;2024-03-23T12:18:44;6.87;;;4.67;;
8540;SDS011;4308;51.294;6.590;2024-03-23T12:21:12;5.53;;;3.37;;
8540;SDS011;4308;51.294;6.590;2024-03-23T12:23:39;6.33;;;2.93;;
8540;SDS011;4308;51.294;6.590;2024-03-23T12:26:05;5.83;;;2.97;;
8540;SDS011;4308;51.294;6.590;2024-03-23T12:28:32;5.40;;;2.30;;
8540;SDS011;4308;51.294;6.590;2024-03-23T12:30:58;5.87;;;2.13;;
8540;SDS011;4308;51.294;6.590;2024-03-23T12:33:25;3.37;;;2.80;;
8540;SDS011;4308;51.294;6.590;2024-03-23T12:35:51;5.57;;;2.50;;
8540;SDS011;4308;51.294;6.590;2024-03-23T12:38:18;7.47;;;2.43;;
8540;SDS011;4308;51.294;6.590;2024-03-23T12:40:47;3.53;;;1.87;;
8540;SDS011;4308;51.294;6.590;2024-03-23T12:43:15;5.17;;;1.90;;
8540;SDS011;4308;51.294;6.590;2024-03-23T12:45:46;3.93;;;1.70;;
8540;SDS011;4308;51.294;6.590;2024-03-23T12:48:13;7.00;;;2.00;;
8540;SDS011;4308;51.294;6.590;2024-03-23T12:50:39;3.57;;;1.90;;
8540;SDS011;4308;51.294;6.590;2024-03-23T12:53:06;4.13;;;1.73;;
8540;SDS011;4308;51.294;6.590;2024-03-23T12:55:34;5.47;;;2.00;;
8540;SDS011;4308;51.294;6.590;2024-03-23T12:58:01;3.40;;;1.90;;
8540;SDS011;4308;51.294;6.590;2024-03-23T13:00:27;6.23;;;1.83;;
8540;SDS011;4308;51.294;6.590;2024-03-23T13:02:54;4.93;;;1.37;;
8540;SDS011;4308;51.294;6.590;2024-03-23T13:05:20;2.03;;;1.00;;
8540;SDS011;4308;51.294;6.590;2024-03-23T13:07:46;2.10;;;1.00;;
8540;SDS011;4308;51.294;6.590;2024-03-23T13:10:13;3.00;;;1.20;;
8540;SDS011;4308;51.294;6.590;2024-03-23T13:12:39;3.47;;;1.45;;
8540;SDS011;4308;51.294;6.590;2024-03-23T13:15:06;5.57;;;1.47;;
8540;SDS011;4308;51.294;6.590;2024-03-23T13:17:33;4.37;;;1.40;;
8540;SDS011;4308;51.294;6.590;2024-03-23T13:19:59;5.03;;;1.50;;
8540;SDS011;4308;51.294;6.590;2024-03-23T13:22:26;3.13;;;1.40;;
8540;SDS011;4308;51.294;6.590;2024-03-23T13:24:53;4.23;;;1.13;;
8540;SDS011;4308;51.294;6.590;2024-03-23T13:27:19;4.70;;;1.63;;
8540;SDS011;4308;51.294;6.590;2024-03-23T13:29:46;2.93;;;1.30;;
8540;SDS011;4308;51.294;6.590;2024-03-23T13:32:13;5.53;;;1.00;;
8540;SDS011;4308;51.294;6.590;2024-03-23T13:34:39;3.87;;;1.17;;
8540;SDS011;4308;51.294;6.590;2024-03-23T13:37:06;3.10;;;1.10;;
8540;SDS011;4308;51.294;6.590;2024-03-23T13:39:32;5.87;;;1.47;;
8540;SDS011;4308;51.294;6.590;2024-03-23T13:41:59;3.10;;;1.37;;
8540;SDS011;4308;51.294;6.590;2024-03-23T13:44:26;5.30;;;1.60;;
8540;SDS011;4308;51.294;6.590;2024-03-23T13:46:52;3.17;;;1.30;;
8540;SDS011;4308;51.294;6.590;2024-03-23T13:49:29;4.73;;;1.77;;
8540;SDS011;4308;51.294;6.590;2024-03-23T13:51:56;3.53;;;1.33;;
8540;SDS011;4308;51.294;6.590;2024-03-23T13:54:22;2.70;;;1.43;;
8540;SDS011;4308;51.294;6.590;2024-03-23T13:56:50;5.53;;;1.90;;
8540;SDS011;4308;51.294;6.590;2024-03-23T13:59:16;3.53;;;1.60;;
8540;SDS011;4308;51.294;6.590;2024-03-23T14:01:43;4.40;;;1.50;;
8540;SDS011;4308;51.294;6.590;2024-03-23T14:04:10;2.77;;;1.57;;
8540;SDS011;4308;51.294;6.590;2024-03-23T14:06:37;4.90;;;1.60;;
8540;SDS011;4308;51.294;6.590;2024-03-23T14:09:03;5.53;;;2.10;;
8540;SDS011;4308;51.294;6.590;2024-03-23T14:11:30;5.27;;;2.03;;
8540;SDS011;4308;51.294;6.590;2024-03-23T14:13:57;4.37;;;1.70;;
8540;SDS011;4308;51.294;6.590;2024-03-23T14:16:23;3.47;;;1.60;;
8540;SDS011;4308;51.294;6.590;2024-03-23T14:18:50;5.20;;;1.67;;
8540;SDS011;4308;51.294;6.590;2024-03-23T14:21:17;3.47;;;1.50;;
8540;SDS011;4308;51.294;6.590;2024-03-23T14:23:43;5.03;;;1.83;;
8540;SDS011;4308;51.294;6.590;2024-03-23T14:26:10;6.30;;;2.00;;
8540;SDS011;4308;51.294;6.590;2024-03-23T14:28:37;2.03;;;1.50;;
8540;SDS011;4308;51.294;6.590;2024-03-23T14:31:03;1.87;;;1.40;;
8540;SDS011;4308;51.294;6.590;2024-03-23T14:33:30;3.07;;;1.30;;
8540;SDS011;4308;51.294;6.590;2024-03-23T14:35:57;2.93;;;1.57;;
8540;SDS011;4308;51.294;6.590;2024-03-23T14:38:23;2.63;;;1.30;;
8540;SDS011;4308;51.294;6.590;2024-03-23T14:40:50;2.47;;;1.20;;
8540;SDS011;4308;51.294;6.590;2024-03-23T14:43:17;4.73;;;1.80;;
8540;SDS011;4308;51.294;6.590;2024-03-23T14:48:29;4.80;;;1.70;;
8540;SDS011;4308;51.294;6.590;2024-03-23T14:50:56;5.43;;;1.83;;
8540;SDS011;4308;51.294;6.590;2024-03-23T14:53:23;6.57;;;1.90;;
8540;SDS011;4308;51.294;6.590;2024-03-23T14:55:49;3.33;;;1.40;;
8540;SDS011;4308;51.294;6.590;2024-03-23T14:58:16;3.47;;;1.80;;
8540;SDS011;4308;51.294;6.590;2024-03-23T15:00:43;2.77;;;1.77;;
8540;SDS011;4308;51.294;6.590;2024-03-23T15:03:09;3.50;;;1.77;;
8540;SDS011;4308;51.294;6.590;2024-03-23T15:05:36;3.23;;;1.63;;
8540;SDS011;4308;51.294;6.590;2024-03-23T15:08:03;3.07;;;1.60;;
8540;SDS011;4308;51.294;6.590;2024-03-23T15:10:29;3.80;;;1.70;;
8540;SDS011;4308;51.294;6.590;2024-03-23T15:12:56;4.77;;;1.70;;
8540;SDS011;4308;51.294;6.590;2024-03-23T15:15:23;2.47;;;1.50;;
8540;SDS011;4308;51.294;6.590;2024-03-23T15:17:49;2.60;;;1.13;;
8540;SDS011;4308;51.294;6.590;2024-03-23T15:20:16;3.07;;;1.50;;
8540;SDS011;4308;51.294;6.590;2024-03-23T15:22:42;2.10;;;1.30;;
8540;SDS011;4308;51.294;6.590;2024-03-23T15:25:09;5.63;;;1.53;;
8540;SDS011;4308;51.294;6.590;2024-03-23T15:27:36;2.53;;;1.40;;
8540;SDS011;4308;51.294;6.590;2024-03-23T15:30:02;1.97;;;1.50;;
8540;SDS011;4308;51.294;6.590;2024-03-23T15:32:29;3.17;;;1.73;;
8540;SDS011;4308;51.294;6.590;2024-03-23T15:34:56;6.43;;;1.90;;
8540;SDS011;4308;51.294;6.590;2024-03-23T15:37:22;5.10;;;1.50;;
8540;SDS011;4308;51.294;6.590;2024-03-23T15:39:49;4.10;;;1.70;;
8540;SDS011;4308;51.294;6.590;2024-03-23T15:42:16;5.03;;;1.80;;
8540;SDS011;4308;51.294;6.590;2024-03-23T15:44:42;2.43;;;1.60;;
8540;SDS011;4308;51.294;6.590;2024-03-23T15:47:09;4.37;;;1.27;;
8540;SDS011;4308;51.294;6.590;2024-03-23T15:49:36;4.27;;;1.53;;
8540;SDS011;4308;51.294;6.590;2024-03-23T15:52:02;3.47;;;1.30;;
8540;SDS011;4308;51.294;6.590;2024-03-23T15:54:29;4.10;;;1.40;;
8540;SDS011;4308;51.294;6.590;2024-03-23T15:56:56;2.43;;;1.23;;
8540;SDS011;4308;51.294;6.590;2024-03-23T15:59:22;1.70;;;1.20;;
8540;SDS011;4308;51.294;6.590;2024-03-23T16:01:49;2.23;;;1.50;;
8540;SDS011;4308;51.294;6.590;2024-03-23T16:04:15;4.87;;;1.53;;
8540;SDS011;4308;51.294;6.590;2024-03-23T16:06:42;2.40;;;1.10;;
8540;SDS011;4308;51.294;6.590;2024-03-23T16:09:09;3.10;;;1.10;;
8540;SDS011;4308;51.294;6.590;2024-03-23T16:11:35;1.17;;;0.93;;
8540;SDS011;4308;51.294;6.590;2024-03-23T16:14:02;4.13;;;0.90;;
8540;SDS011;4308;51.294;6.590;2024-03-23T16:16:29;3.07;;;1.20;;
8540;SDS011;4308;51.294;6.590;2024-03-23T16:18:55;2.53;;;1.20;;
8540;SDS011;4308;51.294;6.590;2024-03-23T16:21:22;1.73;;;0.87;;
8540;SDS011;4308;51.294;6.590;2024-03-23T16:23:48;2.67;;;1.30;;
8540;SDS011;4308;51.294;6.590;2024-03-23T16:26:15;2.27;;;1.10;;